| time (UTC) | temp C | wind direction | speed KPH | gust KPH | rain 1hr cm | rain 24hr cm | rain mn cm | humidity % | barometer mb |
| 20260505130257 | 15 | 42 | 3.2 | 14.5 | 0.00 | 0.00 | 0.00 | 66 | 1010.2 |
| 20260505124757 | 16 | 46 | 3.2 | 11.3 | 0.00 | 0.00 | 0.00 | 64 | 1010.3 |
| 20260505124257 | 17 | 86 | 3.2 | 11.3 | 0.00 | 0.00 | 0.00 | 61 | 1010.3 |
| 20260505123757 | 18 | 45 | 3.2 | 11.3 | 0.00 | 0.00 | 0.00 | 58 | 1010.4 |
| 20260505123257 | 18 | 82 | 3.2 | 11.3 | 0.00 | 0.00 | 0.00 | 62 | 1010.3 |
| 20260505121757 | 18 | 71 | 4.8 | 12.9 | 0.00 | 0.00 | 0.00 | 58 | 1010.4 |
| 20260505121257 | 18 | 23 | 4.8 | 14.5 | 0.00 | 0.00 | 0.00 | 60 | 1010.4 |
| 20260505120757 | 18 | 66 | 3.2 | 11.3 | 0.00 | 0.00 | 0.00 | 62 | 1010.4 |
| 20260505120257 | 17 | 71 | 3.2 | 11.3 | 0.00 | 0.00 | 0.00 | 58 | 1010.5 |
| 20260505114757 | 17 | 35 | 4.8 | 19.3 | 0.00 | 0.00 | 0.00 | 61 | 1010.5 |
| 20260505114258 | 16 | 102 | 3.2 | 11.3 | 0.00 | 0.00 | 0.00 | 67 | 1010.5 |
| 20260505113758 | 15 | 75 | 3.2 | 9.7 | 0.00 | 0.00 | 0.00 | 69 | 1010.6 |
| 20260505113257 | 15 | 76 | 3.2 | 11.3 | 0.00 | 0.00 | 0.00 | 63 | 1010.6 |
| 20260505111757 | 16 | 32 | 3.2 | 11.3 | 0.00 | 0.00 | 0.00 | 67 | 1010.6 |
| 20260505111257 | 14 | 28 | 3.2 | 11.3 | 0.00 | 0.00 | 0.00 | 67 | 1010.7 |
| 20260505110757 | 15 | 35 | 3.2 | 11.3 | 0.00 | 0.00 | 0.00 | 63 | 1010.7 |
| 20260505110258 | 16 | 20 | 3.2 | 12.9 | 0.00 | 0.00 | 0.00 | 57 | 1010.7 |
| 20260505101258 | 17 | 71 | 3.2 | 8.0 | 0.00 | 0.00 | 0.00 | 59 | 1010.9 |
| 20260505094758 | 16 | 87 | 4.8 | 14.5 | 0.00 | 0.00 | 0.00 | 64 | 1011.0 |
| 20260505094257 | 15 | 39 | 3.2 | 11.3 | 0.00 | 0.00 | 0.00 | 70 | 1011.1 |
| 20260505093758 | 13 | 23 | 4.8 | 14.5 | 0.00 | 0.00 | 0.00 | 70 | 1011.1 |
| 20260505091758 | 12 | 14 | 3.2 | 8.0 | 0.00 | 0.00 | 0.00 | 67 | 1011.2 |
| 20260505090758 | 15 | 20 | 3.2 | 9.7 | 0.00 | 0.00 | 0.00 | 64 | 1011.2 |
| 20260505084758 | 13 | 352 | 1.6 | 8.0 | 0.00 | 0.00 | 0.00 | 67 | 1011.2 |
| 20260505084258 | 15 | 22 | 3.2 | 11.3 | 0.00 | 0.00 | 0.00 | 63 | 1011.2 |
| 20260505083758 | 15 | 99 | 3.2 | 11.3 | 0.00 | 0.00 | 0.00 | 67 | 1011.1 |
| 20260505081758 | 13 | 39 | 4.8 | 11.3 | 0.00 | 0.00 | 0.00 | 71 | 1011.2 |
| 20260505081258 | 13 | 29 | 3.2 | 9.7 | 0.00 | 0.00 | 0.00 | 72 | 1011.2 |
| 20260505080758 | 12 | 24 | 3.2 | 11.3 | 0.00 | 0.00 | 0.00 | 77 | 1011.2 |
| 20260505080258 | 12 | 31 | 4.8 | 14.5 | 0.00 | 0.00 | 0.00 | 75 | 1011.2 |
| 20260505074759 | 11 | 54 | 4.8 | 16.1 | 0.00 | 0.00 | 0.00 | 76 | 1011.3 |
| 20260505074307 | 11 | 359 | 3.2 | 12.9 | 0.00 | 0.00 | 0.00 | 77 | 1011.3 |
| 20260505073258 | 12 | 10 | 3.2 | 11.3 | 0.00 | 0.00 | 0.00 | 77 | 1011.4 |
| 20260505071759 | 11 | 24 | 3.2 | 9.7 | 0.00 | 0.00 | 0.00 | 86 | 1011.3 |
| 20260505070758 | 9 | 31 | 3.2 | 9.7 | 0.00 | 0.00 | 0.00 | 89 | 1011.3 |
| 20260505064758 | 8 | 35 | 6.4 | 11.3 | 0.00 | 0.00 | 0.00 | 92 | 1011.4 |
| 20260505064259 | 8 | 26 | 8.0 | 11.3 | 0.00 | 0.00 | 0.00 | 92 | 1011.4 |
| 20260505063258 | 8 | 36 | 4.8 | 11.3 | 0.00 | 0.00 | 0.00 | 93 | 1011.5 |
| 20260505061758 | 8 | 47 | 4.8 | 11.3 | 0.00 | 0.00 | 0.00 | 93 | 1011.5 |
| 20260505060758 | 8 | 34 | 1.6 | 4.8 | 0.00 | 0.00 | 0.00 | 93 | 1011.4 |
| 20260505060258 | 7 | 21 | 1.6 | 8.0 | 0.00 | 0.00 | 0.00 | 93 | 1011.4 |
| 20260505054759 | 7 | 27 | 1.6 | 4.8 | 0.00 | 0.00 | 0.00 | 93 | 1011.4 |
| 20260505053758 | 7 | 5 | 1.6 | 9.7 | 0.00 | 0.00 | 0.00 | 93 | 1011.3 |
| 20260505053259 | 7 | 329 | 3.2 | 9.7 | 0.00 | 0.00 | 0.00 | 93 | 1011.4 |
| 20260505051758 | 6 | 352 | 0.0 | 4.8 | 0.00 | 0.00 | 0.00 | 93 | 1011.4 |
| 20260505051258 | 6 | 340 | 3.2 | 8.0 | 0.00 | 0.00 | 0.00 | 93 | 1011.3 |
| 20260505050759 | 6 | 357 | 0.0 | 3.2 | 0.00 | 0.00 | 0.00 | 93 | 1011.3 |
| 20260505050258 | 6 | 357 | 1.6 | 8.0 | 0.00 | 0.00 | 0.00 | 93 | 1011.2 |
| 20260505041258 | 5 | 311 | 1.6 | 3.2 | 0.00 | 0.00 | 0.00 | 93 | 1011.3 |
| 20260505040758 | 5 | 316 | 1.6 | 4.8 | 0.00 | 0.00 | 0.00 | 93 | 1011.2 |
| 20260505034758 | 5 | 338 | 1.6 | 4.8 | 0.00 | 0.00 | 0.00 | 92 | 1011.3 |
| 20260505034259 | 5 | 322 | 0.0 | 1.6 | 0.00 | 0.00 | 0.00 | 92 | 1011.3 |
| 20260505033800 | 5 | 321 | 0.0 | 1.6 | 0.00 | 0.00 | 0.00 | 92 | 1011.3 |
| 20260505033258 | 5 | 321 | 0.0 | 8.0 | 0.00 | 0.00 | 0.00 | 92 | 1011.3 |
| 20260505031259 | 5 | 343 | 1.6 | 8.0 | 0.00 | 0.00 | 0.00 | 92 | 1011.3 |
| 20260505030759 | 5 | 308 | 1.6 | 8.0 | 0.00 | 0.00 | 0.00 | 92 | 1011.3 |
| 20260505030259 | 5 | 307 | 0.0 | 8.0 | 0.00 | 0.00 | 0.00 | 92 | 1011.3 |
| 20260505024259 | 5 | 306 | 1.6 | 4.8 | 0.00 | 0.00 | 0.00 | 91 | 1011.4 |
| 20260505023259 | 5 | 319 | 1.6 | 8.0 | 0.00 | 0.00 | 0.00 | 91 | 1011.4 |
| 20260505021800 | 5 | 5 | 1.6 | 4.8 | 0.00 | 0.00 | 0.00 | 91 | 1011.5 |
| 20260505021259 | 5 | 358 | 1.6 | 4.8 | 0.00 | 0.00 | 0.00 | 91 | 1011.5 |
| 20260505020300 | 5 | 1 | 1.6 | 4.8 | 0.00 | 0.00 | 0.00 | 91 | 1011.5 |
| 20260505014759 | 5 | 321 | 1.6 | 9.7 | 0.00 | 0.00 | 0.00 | 90 | 1011.5 |
| 20260505013800 | 5 | 297 | 0.0 | 3.2 | 0.00 | 0.00 | 0.00 | 91 | 1011.6 |
| 20260505013259 | 5 | 292 | 0.0 | 4.8 | 0.00 | 0.00 | 0.00 | 90 | 1011.6 |
| 20260505011800 | 5 | 291 | 0.0 | 4.8 | 0.00 | 0.00 | 0.00 | 90 | 1011.7 |
| 20260505011300 | 5 | 282 | 3.2 | 8.0 | 0.00 | 0.00 | 0.00 | 90 | 1011.6 |
| 20260505010759 | 5 | 277 | 1.6 | 4.8 | 0.00 | 0.00 | 0.00 | 90 | 1011.6 |
| 20260505010259 | 5 | 276 | 1.6 | 4.8 | 0.00 | 0.00 | 0.00 | 90 | 1011.7 |
| 20260505004759 | 5 | 277 | 3.2 | 4.8 | 0.00 | 0.00 | 0.00 | 90 | 1011.7 |
| 20260505004259 | 5 | 258 | 1.6 | 4.8 | 0.00 | 0.00 | 0.00 | 90 | 1011.7 |
| 20260505003800 | 5 | 261 | 1.6 | 4.8 | 0.00 | 0.00 | 0.00 | 90 | 1011.7 |
| 20260505003300 | 5 | 262 | 1.6 | 8.0 | 0.00 | 0.00 | 0.00 | 89 | 1011.8 |
| 20260505001759 | 6 | 253 | 1.6 | 3.2 | 0.00 | 0.00 | 0.00 | 89 | 1011.7 |
| 20260505001259 | 6 | 254 | 1.6 | 4.8 | 0.00 | 0.00 | 0.00 | 89 | 1011.8 |
| 20260505000800 | 6 | 276 | 1.6 | 4.8 | 0.00 | 0.00 | 0.00 | 89 | 1011.8 |
| 20260505000300 | 6 | 270 | 3.2 | 8.0 | 0.00 | 0.00 | 0.00 | 88 | 1011.8 |
| 20260504234800 | 6 | 260 | 3.2 | 8.0 | 0.00 | 0.00 | 0.00 | 88 | 1011.9 |
| 20260504234300 | 6 | 249 | 1.6 | 3.2 | 0.00 | 0.00 | 0.00 | 88 | 1011.9 |
| 20260504233800 | 6 | 244 | 3.2 | 8.0 | 0.00 | 0.00 | 0.00 | 89 | 1012.0 |
| 20260504233300 | 6 | 244 | 3.2 | 9.7 | 0.00 | 0.00 | 0.00 | 88 | 1012.0 |
| 20260504231759 | 6 | 241 | 0.0 | 4.8 | 0.00 | 0.00 | 0.00 | 88 | 1012.0 |
| 20260504231259 | 6 | 244 | 1.6 | 4.8 | 0.00 | 0.00 | 0.00 | 88 | 1012.0 |
| 20260504230800 | 6 | 237 | 1.6 | 3.2 | 0.00 | 0.00 | 0.00 | 88 | 1012.0 |
| 20260504230259 | 6 | 236 | 1.6 | 9.7 | 0.00 | 0.00 | 0.00 | 88 | 1012.0 |
| 20260504224800 | 6 | 258 | 3.2 | 4.8 | 0.00 | 0.00 | 0.00 | 87 | 1012.1 |
| 20260504224301 | 6 | 265 | 3.2 | 4.8 | 0.00 | 0.00 | 0.00 | 87 | 1012.1 |
| 20260504223800 | 6 | 280 | 4.8 | 11.3 | 0.00 | 0.00 | 0.00 | 87 | 1012.2 |
| 20260504223300 | 6 | 242 | 1.6 | 8.0 | 0.00 | 0.00 | 0.00 | 87 | 1012.2 |
| 20260504221800 | 7 | 241 | 1.6 | 4.8 | 0.00 | 0.00 | 0.00 | 86 | 1012.3 |
| 20260504220759 | 7 | 238 | 1.6 | 8.0 | 0.00 | 0.00 | 0.00 | 85 | 1012.3 |
| 20260504220300 | 7 | 253 | 1.6 | 4.8 | 0.00 | 0.00 | 0.00 | 85 | 1012.3 |
| 20260504214800 | 7 | 251 | 3.2 | 11.3 | 0.00 | 0.00 | 0.00 | 85 | 1012.5 |
| 20260504213800 | 7 | 248 | 3.2 | 8.0 | 0.00 | 0.00 | 0.00 | 84 | 1012.6 |
| 20260504213300 | 7 | 254 | 3.2 | 11.3 | 0.00 | 0.00 | 0.00 | 84 | 1012.6 |
| 20260504211800 | 7 | 277 | 3.2 | 8.0 | 0.00 | 0.00 | 0.00 | 84 | 1012.5 |
| 20260504211301 | 7 | 308 | 1.6 | 9.7 | 0.00 | 0.00 | 0.00 | 84 | 1012.4 |
| 20260504210800 | 7 | 260 | 3.2 | 8.0 | 0.00 | 0.00 | 0.00 | 83 | 1012.4 |
| 20260504210300 | 7 | 265 | 4.8 | 11.3 | 0.00 | 0.00 | 0.00 | 83 | 1012.3 |
| 20260504204800 | 8 | 204 | 1.6 | 3.2 | 0.00 | 0.00 | 0.00 | 82 | 1012.2 |
| 20260504203801 | 8 | 269 | 4.8 | 14.5 | 0.00 | 0.03 | 0.00 | 81 | 1012.2 |
| 20260504203301 | 8 | 259 | 1.6 | 9.7 | 0.00 | 0.03 | 0.00 | 81 | 1012.2 |
| 20260504201800 | 8 | 264 | 1.6 | 4.8 | 0.00 | 0.05 | 0.00 | 80 | 1012.2 |
| 20260504201300 | 8 | 262 | 1.6 | 11.3 | 0.00 | 0.05 | 0.00 | 79 | 1012.1 |
| 20260504200801 | 8 | 255 | 1.6 | 11.3 | 0.00 | 0.05 | 0.00 | 79 | 1012.2 |
| 20260504200300 | 8 | 201 | 1.6 | 11.3 | 0.00 | 0.05 | 0.00 | 78 | 1012.2 |
| 20260504194801 | 9 | 269 | 1.6 | 11.3 | 0.00 | 0.18 | 0.00 | 77 | 1012.0 |
| 20260504194301 | 9 | 295 | 1.6 | 9.7 | 0.00 | 0.18 | 0.00 | 76 | 1012.0 |
| 20260504193800 | 10 | 119 | 3.2 | 11.3 | 0.00 | 0.18 | 0.00 | 76 | 1011.9 |
| 20260504193300 | 10 | 200 | 3.2 | 11.3 | 0.00 | 0.18 | 0.00 | 76 | 1011.9 |
| 20260504191801 | 10 | 272 | 1.6 | 4.8 | 0.00 | 0.18 | 0.00 | 74 | 1011.9 |
| 20260504190800 | 10 | 276 | 4.8 | 11.3 | 0.00 | 0.20 | 0.00 | 74 | 1011.8 |
| 20260504190300 | 11 | 245 | 4.8 | 12.9 | 0.00 | 0.20 | 0.00 | 73 | 1011.8 |
| 20260504184800 | 11 | 247 | 4.8 | 9.7 | 0.00 | 0.23 | 0.00 | 74 | 1011.8 |
| 20260504184301 | 11 | 244 | 3.2 | 4.8 | 0.00 | 0.23 | 0.00 | 73 | 1011.6 |
| 20260504183800 | 11 | 241 | 4.8 | 9.7 | 0.00 | 0.23 | 0.00 | 73 | 1011.6 |
| 20260504183301 | 11 | 237 | 1.6 | 11.3 | 0.00 | 0.23 | 0.00 | 73 | 1011.6 |
| 20260504181801 | 12 | 240 | 4.8 | 11.3 | 0.00 | 0.30 | 0.00 | 73 | 1011.6 |
| 20260504181300 | 12 | 246 | 3.2 | 8.0 | 0.00 | 0.33 | 0.00 | 72 | 1011.6 |
| 20260504180800 | 12 | 263 | 1.6 | 8.0 | 0.00 | 0.41 | 0.00 | 72 | 1011.6 |
| 20260504180301 | 12 | 251 | 4.8 | 11.3 | 0.00 | 0.43 | 0.00 | 72 | 1011.6 |
| 20260504174801 | 12 | 230 | 8.0 | 11.3 | 0.00 | 0.71 | 0.00 | 71 | 1011.5 |
| 20260504174301 | 12 | 276 | 6.4 | 12.9 | 0.00 | 0.79 | 0.00 | 71 | 1011.5 |
| 20260504173801 | 12 | 251 | 4.8 | 8.0 | 0.00 | 0.99 | 0.00 | 72 | 1011.5 |
| 20260504173301 | 12 | 252 | 8.0 | 12.9 | 0.00 | 1.02 | 0.00 | 72 | 1011.5 |
| 20260504171800 | 13 | 237 | 4.8 | 11.3 | 0.00 | 1.45 | 0.00 | 71 | 1011.5 |
| 20260504171301 | 13 | 258 | 1.6 | 11.3 | 0.00 | 1.85 | 0.00 | 71 | 1011.5 |
| 20260504170301 | 13 | 248 | 4.8 | 11.3 | 0.00 | 2.36 | 0.00 | 71 | 1011.5 |
| 20260504160301 | 15 | 223 | 8.0 | 14.5 | 0.00 | 2.39 | 0.00 | 65 | 1011.5 |
| 20260504150801 | 16 | 241 | 4.8 | 16.1 | 0.00 | 2.39 | 0.00 | 62 | 1011.8 |